createdAt,value
2018-08-30T00:01:10.841Z,10.10
2018-08-30T00:03:42.027Z,11.00
2018-08-30T00:06:12.832Z,10.45
2018-08-30T00:08:44.197Z,10.53
2018-08-30T00:11:14.951Z,11.08
2018-08-30T00:13:46.130Z,11.38
2018-08-30T00:16:17.411Z,11.30
2018-08-30T00:18:48.931Z,11.16
2018-08-30T00:21:18.927Z,10.77
2018-08-30T00:23:51.096Z,11.25
2018-08-30T00:26:20.974Z,12.40
2018-08-30T00:28:52.162Z,11.78
2018-08-30T00:31:22.068Z,11.80
2018-08-30T00:33:53.147Z,12.20
2018-08-30T00:36:23.905Z,12.70
2018-08-30T00:38:54.910Z,12.15
2018-08-30T00:41:25.884Z,12.28
2018-08-30T00:43:57.287Z,12.45
2018-08-30T00:46:27.950Z,12.63
2018-08-30T00:48:59.052Z,12.37
2018-08-30T00:51:29.836Z,13.05
2018-08-30T00:54:01.312Z,12.18
2018-08-30T00:56:31.976Z,12.70
2018-08-30T00:59:03.131Z,12.88
2018-08-30T01:01:33.857Z,12.45
2018-08-30T01:04:05.075Z,13.95
2018-08-30T01:06:35.793Z,12.65
2018-08-30T01:09:08.246Z,13.18
2018-08-30T01:11:38.319Z,12.80
2018-08-30T01:14:08.976Z,14.17
2018-08-30T01:16:39.930Z,13.62
2018-08-30T01:19:10.969Z,13.83
2018-08-30T01:21:42.576Z,14.07
2018-08-30T01:24:12.688Z,13.35
2018-08-30T01:26:44.340Z,14.75
2018-08-30T01:29:15.077Z,13.70
2018-08-30T01:31:45.123Z,13.93
2018-08-30T01:34:16.151Z,13.58
2018-08-30T01:36:46.871Z,13.55
2018-08-30T01:39:18.114Z,13.95
2018-08-30T01:41:48.890Z,13.78
2018-08-30T01:44:20.225Z,13.88
2018-08-30T01:46:51.229Z,13.80
2018-08-30T01:49:22.110Z,13.60
2018-08-30T01:51:52.874Z,14.53
2018-08-30T01:54:24.065Z,14.33
2018-08-30T01:56:54.924Z,14.60
2018-08-30T01:59:26.096Z,14.58
2018-08-30T02:01:56.853Z,14.60
2018-08-30T02:04:28.067Z,13.30
2018-08-30T02:06:58.091Z,13.70
2018-08-30T02:09:29.208Z,13.43
2018-08-30T02:12:00.300Z,12.90
2018-08-30T02:14:31.230Z,13.88
2018-08-30T02:17:02.141Z,13.65
2018-08-30T02:19:33.677Z,13.95
2018-08-30T02:22:03.656Z,14.60
2018-08-30T02:24:35.465Z,14.82
2018-08-30T02:27:06.029Z,13.76
2018-08-30T02:29:37.236Z,12.70
2018-08-30T02:32:07.408Z,13.03
2018-08-30T02:34:38.673Z,14.24
2018-08-30T02:37:08.609Z,13.35
2018-08-30T02:39:39.910Z,13.95
2018-08-30T02:42:10.865Z,13.18
2018-08-30T02:44:42.166Z,14.43
2018-08-30T02:47:12.868Z,13.80
2018-08-30T02:49:44.097Z,14.63
2018-08-30T02:52:14.905Z,13.62
2018-08-30T02:54:46.089Z,13.70
2018-08-30T02:57:16.789Z,14.18
2018-08-30T02:59:48.041Z,15.35
2018-08-30T03:02:18.846Z,14.10
2018-08-30T03:04:50.088Z,14.13
2018-08-30T03:07:20.815Z,14.85
2018-08-30T03:09:52.124Z,14.87
2018-08-30T03:12:22.970Z,15.83
2018-08-30T03:15:04.608Z,14.63
2018-08-30T03:17:34.887Z,14.47
2018-08-30T03:20:06.625Z,13.70
2018-08-30T03:22:37.389Z,14.00
2018-08-30T03:25:07.895Z,13.90
2018-08-30T03:27:37.789Z,16.07
2018-08-30T03:30:09.215Z,15.27
2018-08-30T03:32:39.257Z,14.60
2018-08-30T03:35:09.855Z,14.35
2018-08-30T03:37:39.658Z,14.90
2018-08-30T03:40:09.651Z,14.50
2018-08-30T03:42:39.604Z,14.97
2018-08-30T03:45:09.490Z,14.20
2018-08-30T03:47:39.718Z,14.23
2018-08-30T03:50:09.657Z,15.40
2018-08-30T03:52:39.629Z,14.87
2018-08-30T03:55:09.680Z,14.80
2018-08-30T03:57:40.670Z,14.18
2018-08-30T04:00:12.479Z,16.26
2018-08-30T04:02:43.357Z,14.16
2018-08-30T04:05:14.084Z,15.68
2018-08-30T04:07:45.166Z,14.13
2018-08-30T04:10:16.040Z,13.72
2018-08-30T04:12:46.869Z,16.15
2018-08-30T04:15:18.326Z,15.55
2018-08-30T04:17:48.957Z,15.28
2018-08-30T04:20:20.667Z,15.75
2018-08-30T04:22:50.896Z,15.10
2018-08-30T04:25:22.034Z,15.65
2018-08-30T04:27:52.953Z,15.53
2018-08-30T04:30:25.045Z,15.02
2018-08-30T04:32:54.888Z,15.53
2018-08-30T04:35:26.050Z,17.05
2018-08-30T04:37:56.969Z,16.80
2018-08-30T04:40:28.053Z,18.85
2018-08-30T04:42:58.758Z,17.67
2018-08-30T04:45:30.025Z,18.70
2018-08-30T04:48:00.893Z,18.62
2018-08-30T04:50:32.044Z,17.73
2018-08-30T04:53:02.752Z,20.02
2018-08-30T04:55:33.817Z,19.35
2018-08-30T04:58:04.749Z,22.58
2018-08-30T05:00:35.768Z,20.40
2018-08-30T05:03:06.589Z,20.40
2018-08-30T05:05:37.766Z,21.10
2018-08-30T05:08:09.581Z,22.13
2018-08-30T05:10:39.672Z,21.15
2018-08-30T05:13:10.500Z,20.97
2018-08-30T05:15:42.085Z,21.20
2018-08-30T05:18:12.763Z,22.70
2018-08-30T05:20:43.851Z,23.50
2018-08-30T05:23:15.027Z,20.75
2018-08-30T05:25:46.050Z,22.27
2018-08-30T05:28:16.730Z,23.55
2018-08-30T05:30:47.857Z,22.30
2018-08-30T05:33:18.610Z,22.40
2018-08-30T05:35:50.197Z,22.44
2018-08-30T05:38:20.977Z,23.02
2018-08-30T05:40:51.984Z,23.10
2018-08-30T05:43:22.768Z,23.05
2018-08-30T05:45:53.885Z,23.73
2018-08-30T05:48:25.014Z,22.27
2018-08-30T05:50:56.177Z,21.48
2018-08-30T05:53:26.725Z,20.70
2018-08-30T05:55:57.802Z,22.37
2018-08-30T05:58:28.892Z,20.95
2018-08-30T06:01:00.320Z,20.37
2018-08-30T06:03:30.784Z,21.40
2018-08-30T06:06:02.087Z,21.25
2018-08-30T06:08:32.821Z,21.05
2018-08-30T06:11:03.776Z,20.05
2018-08-30T06:13:34.548Z,18.75
2018-08-30T06:16:06.117Z,20.68
2018-08-30T06:18:37.135Z,19.45
2018-08-30T06:21:08.489Z,19.65
2018-08-30T06:23:39.177Z,19.43
2018-08-30T06:26:10.142Z,18.23
2018-08-30T06:28:40.748Z,17.90
2018-08-30T06:31:11.866Z,17.70
2018-08-30T06:33:42.679Z,17.70
2018-08-30T06:36:13.875Z,17.05
2018-08-30T06:38:44.865Z,18.42
2018-08-30T06:41:16.029Z,17.12
2018-08-30T06:43:48.643Z,17.76
2018-08-30T06:46:18.725Z,17.03
2018-08-30T06:48:48.679Z,17.00
2018-08-30T06:51:19.790Z,16.02
2018-08-30T06:53:50.808Z,15.80
2018-08-30T06:56:21.875Z,16.25
2018-08-30T06:58:52.686Z,15.23
2018-08-30T07:01:23.635Z,15.50
2018-08-30T07:03:54.437Z,14.53
2018-08-30T07:06:26.025Z,15.12
2018-08-30T07:08:55.804Z,14.80
2018-08-30T07:11:26.806Z,13.98
2018-08-30T07:13:57.556Z,14.03
2018-08-30T07:16:29.077Z,14.52
2018-08-30T07:18:59.771Z,13.68
2018-08-30T07:21:31.098Z,13.95
2018-08-30T07:24:02.750Z,13.88
2018-08-30T07:26:32.748Z,12.83
2018-08-30T07:29:03.536Z,12.35
2018-08-30T07:31:35.349Z,12.70
2018-08-30T07:34:06.272Z,12.48
2018-08-30T07:36:37.365Z,12.18
2018-08-30T07:39:10.701Z,12.40
2018-08-30T07:41:41.043Z,11.23
2018-08-30T07:44:12.178Z,12.03
2018-08-30T07:46:43.168Z,13.58
2018-08-30T07:49:13.518Z,9.73
2018-08-30T07:51:43.795Z,9.95
2018-08-30T07:54:15.373Z,13.53
2018-08-30T07:56:45.446Z,12.43
2018-08-30T07:59:15.852Z,11.42
2018-08-30T08:01:46.869Z,17.12
2018-08-30T08:04:17.581Z,18.15
2018-08-30T08:06:49.097Z,13.42
2018-08-30T08:09:19.885Z,11.35
2018-08-30T08:11:51.234Z,9.55
2018-08-30T08:14:21.692Z,10.10
2018-08-30T08:16:52.719Z,10.80
2018-08-30T08:19:23.444Z,9.85
2018-08-30T08:21:55.325Z,9.44
2018-08-30T08:24:26.110Z,9.98
2018-08-30T08:26:57.102Z,10.32
2018-08-30T08:29:27.672Z,10.00
2018-08-30T08:31:59.203Z,9.42
2018-08-30T08:34:29.737Z,9.03
2018-08-30T08:37:00.769Z,10.28
2018-08-30T08:39:31.585Z,9.55
2018-08-30T08:42:03.100Z,9.52
2018-08-30T08:44:33.687Z,9.03
2018-08-30T08:47:04.972Z,8.58
2018-08-30T08:49:35.985Z,9.53
2018-08-30T08:52:07.237Z,9.13
2018-08-30T08:54:37.793Z,9.15
2018-08-30T08:57:09.087Z,8.55
2018-08-30T08:59:39.608Z,8.50
2018-08-30T09:02:10.763Z,8.68
2018-08-30T09:04:41.513Z,8.63
2018-08-30T09:07:14.324Z,8.14
2018-08-30T09:09:44.418Z,8.17
2018-08-30T09:12:15.126Z,8.30
2018-08-30T09:14:45.724Z,8.65
2018-08-30T09:17:16.828Z,7.90
2018-08-30T09:19:47.939Z,8.00
2018-08-30T09:22:19.147Z,7.78
2018-08-30T09:24:49.640Z,8.30
2018-08-30T09:27:20.903Z,7.97
2018-08-30T09:29:51.960Z,7.45
2018-08-30T09:32:23.295Z,8.33
2018-08-30T09:34:54.026Z,8.38
2018-08-30T09:37:25.001Z,7.50
2018-08-30T09:39:55.892Z,7.60
2018-08-30T09:42:26.956Z,8.00
2018-08-30T09:44:57.677Z,8.00
2018-08-30T09:47:28.665Z,8.25
2018-08-30T09:49:59.445Z,7.50
2018-08-30T09:52:30.873Z,7.94
2018-08-30T09:55:01.611Z,8.33
2018-08-30T09:57:33.033Z,7.56
2018-08-30T10:00:03.748Z,7.87
2018-08-30T10:02:36.544Z,7.35
2018-08-30T10:05:06.309Z,8.47
2018-08-30T10:07:36.813Z,8.14
2018-08-30T10:10:08.428Z,9.03
2018-08-30T10:12:39.122Z,7.60
2018-08-30T10:15:10.103Z,7.47
2018-08-30T10:17:40.661Z,8.00
2018-08-30T10:20:11.944Z,8.40
2018-08-30T10:22:42.807Z,8.55
2018-08-30T10:25:13.857Z,8.53
2018-08-30T10:27:44.898Z,8.73
2018-08-30T10:30:16.217Z,8.48
2018-08-30T10:32:46.711Z,9.68
2018-08-30T10:35:17.657Z,8.88
2018-08-30T10:37:48.448Z,8.70
2018-08-30T10:40:27.442Z,8.32
2018-08-30T10:42:57.426Z,9.30
2018-08-30T10:45:27.878Z,8.63
2018-08-30T10:47:57.592Z,8.00
2018-08-30T10:50:27.683Z,9.63
2018-08-30T10:52:57.472Z,9.07
2018-08-30T10:55:27.569Z,8.87
2018-08-30T10:57:57.684Z,8.83
2018-08-30T11:00:27.966Z,9.17
2018-08-30T11:02:59.068Z,8.35
2018-08-30T11:05:29.880Z,8.78
2018-08-30T11:08:00.817Z,9.30
2018-08-30T11:10:31.784Z,8.45
2018-08-30T11:13:02.934Z,8.83
2018-08-30T11:15:33.666Z,8.90
2018-08-30T11:18:04.829Z,8.65
2018-08-30T11:20:35.620Z,8.45
2018-08-30T11:23:06.972Z,7.83
2018-08-30T11:25:37.911Z,8.93
2018-08-30T11:28:08.856Z,8.70
2018-08-30T11:30:39.572Z,7.50
2018-08-30T11:33:10.601Z,7.90
2018-08-30T11:35:41.506Z,7.58
2018-08-30T11:38:13.072Z,7.96
2018-08-30T11:40:44.089Z,8.25
2018-08-30T11:43:16.419Z,7.87
2018-08-30T11:45:46.645Z,7.90
2018-08-30T11:48:16.576Z,8.00
2018-08-30T11:50:47.444Z,8.05
2018-08-30T11:53:18.758Z,8.26
2018-08-30T11:55:49.761Z,8.75
2018-08-30T11:58:20.730Z,8.33
2018-08-30T12:00:51.794Z,8.03
2018-08-30T12:03:23.578Z,7.47
2018-08-30T12:05:54.835Z,7.90
2018-08-30T12:08:25.073Z,7.57
2018-08-30T12:10:56.506Z,7.58
2018-08-30T12:13:26.696Z,8.10
2018-08-30T12:15:57.679Z,7.85
2018-08-30T12:18:28.609Z,7.35
2018-08-30T12:20:59.760Z,7.80
2018-08-30T12:23:30.650Z,7.80
2018-08-30T12:26:01.725Z,7.28
2018-08-30T12:28:32.650Z,8.13
2018-08-30T12:31:03.836Z,7.33
2018-08-30T12:33:34.985Z,8.18
2018-08-30T12:36:06.163Z,8.13
2018-08-30T12:38:36.666Z,8.05
2018-08-30T12:41:08.119Z,7.90
2018-08-30T12:43:39.064Z,8.10
2018-08-30T12:46:10.035Z,8.13
2018-08-30T12:48:41.112Z,8.23
2018-08-30T12:51:12.273Z,8.65
2018-08-30T12:53:42.859Z,7.88
2018-08-30T12:56:14.195Z,8.20
2018-08-30T12:58:45.253Z,8.63
2018-08-30T13:01:16.078Z,8.68
2018-08-30T13:03:46.869Z,8.80
2018-08-30T13:06:17.999Z,8.55
2018-08-30T13:08:49.016Z,9.00
2018-08-30T13:11:21.103Z,8.60
2018-08-30T13:13:51.127Z,9.47
2018-08-30T13:16:25.970Z,9.03
2018-08-30T13:18:56.149Z,8.37
2018-08-30T13:21:26.236Z,8.33
2018-08-30T13:23:56.908Z,8.93
2018-08-30T13:26:26.923Z,8.90
2018-08-30T13:28:57.401Z,8.77
2018-08-30T13:31:27.395Z,8.93
2018-08-30T13:33:58.529Z,8.58
2018-08-30T13:36:29.139Z,8.90
2018-08-30T13:39:00.706Z,8.78
2018-08-30T13:41:31.329Z,8.72
2018-08-30T13:44:02.244Z,9.73
2018-08-30T13:46:33.070Z,8.40
2018-08-30T13:49:04.681Z,9.70
2018-08-30T13:51:35.529Z,9.24
2018-08-30T13:54:06.420Z,9.03
2018-08-30T13:56:37.274Z,8.80
2018-08-30T13:59:08.658Z,8.55
2018-08-30T14:01:39.479Z,8.08
2018-08-30T14:04:10.386Z,7.95
2018-08-30T14:06:41.249Z,8.48
2018-08-30T14:09:12.448Z,8.63
2018-08-30T14:11:43.368Z,7.50
2018-08-30T14:14:14.389Z,8.43
2018-08-30T14:16:44.810Z,7.67
2018-08-30T14:19:16.096Z,7.95
2018-08-30T14:21:46.723Z,8.15
2018-08-30T14:24:16.790Z,7.75
2018-08-30T14:26:47.970Z,8.08
2018-08-30T14:29:19.457Z,8.50
2018-08-30T14:31:50.163Z,8.60
2018-08-30T14:34:21.329Z,8.78
2018-08-30T14:36:51.900Z,8.78
2018-08-30T14:39:23.014Z,8.60
2018-08-30T14:41:53.948Z,9.03
2018-08-30T14:44:25.317Z,9.33
2018-08-30T14:46:57.916Z,9.52
2018-08-30T14:49:28.240Z,8.53
2018-08-30T14:51:58.176Z,9.20
2018-08-30T14:54:29.158Z,9.53
2018-08-30T14:56:59.802Z,9.63
2018-08-30T14:59:31.126Z,9.03
2018-08-30T15:02:01.779Z,8.73
2018-08-30T15:04:32.820Z,7.12
2018-08-30T15:07:03.578Z,7.67
2018-08-30T15:09:35.216Z,7.62
2018-08-30T15:12:05.976Z,7.90
2018-08-30T15:14:36.789Z,8.05
2018-08-30T15:17:07.658Z,8.40
2018-08-30T15:19:38.913Z,8.48
2018-08-30T15:22:12.002Z,7.95
2018-08-30T15:24:42.816Z,10.07
2018-08-30T15:27:12.921Z,9.13
2018-08-30T15:29:44.898Z,9.63
2018-08-30T15:32:14.835Z,9.50
2018-08-30T15:34:44.680Z,9.73
2018-08-30T15:37:14.701Z,9.20
2018-08-30T15:39:45.484Z,10.18
2018-08-30T15:42:17.095Z,10.70
2018-08-30T15:44:47.692Z,10.55
2018-08-30T15:47:19.005Z,10.63
2018-08-30T15:49:52.113Z,10.88
2018-08-30T15:52:22.652Z,10.73
2018-08-30T15:54:52.376Z,11.53
2018-08-30T15:57:24.109Z,12.73
2018-08-30T15:59:54.105Z,12.80
2018-08-30T16:02:25.195Z,12.86
2018-08-30T16:04:55.766Z,14.63
2018-08-30T16:07:26.993Z,13.20
2018-08-30T16:09:57.848Z,15.70
2018-08-30T16:12:28.964Z,16.48
2018-08-30T16:14:59.767Z,16.02
2018-08-30T16:17:30.840Z,16.45
2018-08-30T16:20:01.631Z,17.50
2018-08-30T16:22:49.882Z,17.32
2018-08-30T16:25:20.144Z,17.30
2018-08-30T16:27:49.978Z,18.10
2018-08-30T16:30:20.828Z,18.32
2018-08-30T16:32:50.916Z,19.10
2018-08-30T16:35:21.362Z,19.03
2018-08-30T16:37:51.276Z,19.62
2018-08-30T16:40:21.929Z,19.50
2018-08-30T16:42:51.925Z,20.63
2018-08-30T16:45:21.961Z,19.97
2018-08-30T16:47:52.689Z,21.50
2018-08-30T16:50:22.462Z,21.30
2018-08-30T16:52:52.546Z,20.80
2018-08-30T16:55:24.376Z,22.13
2018-08-30T16:57:54.336Z,20.43
2018-08-30T17:00:25.100Z,21.63
2018-08-30T17:02:54.946Z,21.15
2018-08-30T17:05:25.902Z,22.98
2018-08-30T17:07:55.725Z,21.37
2018-08-30T17:10:25.970Z,20.77
2018-08-30T17:12:55.774Z,22.73
2018-08-30T17:15:25.718Z,20.60
2018-08-30T17:17:56.001Z,16.37
2018-08-30T17:20:29.793Z,21.10
2018-08-30T17:22:59.777Z,21.90
2018-08-30T17:25:29.812Z,22.87
2018-08-30T17:28:00.444Z,23.07
2018-08-30T17:30:30.332Z,22.23
2018-08-30T17:33:00.956Z,26.35
2018-08-30T17:35:32.006Z,22.93
2018-08-30T17:38:03.281Z,24.35
2018-08-30T17:40:34.116Z,24.32
2018-08-30T17:43:04.828Z,23.32
2018-08-30T17:45:36.282Z,26.87
2018-08-30T17:48:07.233Z,28.94
2018-08-30T17:50:37.470Z,27.90
2018-08-30T17:53:07.732Z,27.75
2018-08-30T17:55:39.552Z,28.15
2018-08-30T17:58:10.029Z,29.98
2018-08-30T18:00:41.449Z,29.75
2018-08-30T18:03:13.290Z,27.83
2018-08-30T18:05:43.733Z,30.37
2018-08-30T18:08:13.751Z,29.33
2018-08-30T18:10:45.267Z,31.73
2018-08-30T18:13:15.949Z,30.88
2018-08-30T18:15:47.085Z,31.42
2018-08-30T18:18:18.009Z,33.00
2018-08-30T18:20:49.071Z,31.40
2018-08-30T18:23:20.174Z,32.08
2018-08-30T18:25:51.229Z,30.48
2018-08-30T18:28:21.822Z,29.15
2018-08-30T18:30:52.981Z,27.13
2018-08-30T18:33:23.881Z,27.00
2018-08-30T18:35:55.271Z,25.08
2018-08-30T18:38:27.462Z,23.76
2018-08-30T18:40:57.682Z,23.67
2018-08-30T18:43:27.979Z,22.00
2018-08-30T18:46:00.368Z,24.10
2018-08-30T18:48:30.742Z,23.17
2018-08-30T18:51:00.818Z,23.67
2018-08-30T18:53:32.781Z,22.13
2018-08-30T18:56:03.004Z,23.87
2018-08-30T18:58:33.945Z,23.25
2018-08-30T19:01:05.227Z,21.27
2018-08-30T19:03:35.951Z,21.30
2018-08-30T19:06:07.060Z,20.52
2018-08-30T19:08:37.962Z,21.20
2018-08-30T19:11:09.370Z,20.27
2018-08-30T19:13:40.115Z,19.92
2018-08-30T19:16:16.143Z,18.73
2018-08-30T19:18:51.171Z,18.25
2018-08-30T19:21:21.405Z,17.55
2018-08-30T19:23:51.474Z,17.30
2018-08-30T19:26:21.645Z,17.40
2018-08-30T19:28:52.182Z,16.53
2018-08-30T19:31:22.115Z,15.43
2018-08-30T19:33:53.071Z,16.50
2018-08-30T19:36:33.395Z,14.73
2018-08-30T19:39:05.448Z,15.55
2018-08-30T19:41:35.638Z,15.33
2018-08-30T19:44:05.930Z,14.45
2018-08-30T19:46:36.400Z,14.30
2018-08-30T19:49:07.026Z,14.47
2018-08-30T19:51:37.508Z,14.35
2018-08-30T19:54:07.693Z,14.10
2018-08-30T19:56:37.825Z,14.13
2018-08-30T19:59:07.963Z,13.57
2018-08-30T20:01:37.794Z,13.83
2018-08-30T20:04:07.794Z,13.50
2018-08-30T20:06:37.901Z,12.00
2018-08-30T20:09:08.201Z,11.17
2018-08-30T20:11:38.603Z,9.97
2018-08-30T20:14:08.465Z,9.20
2018-08-30T20:16:38.426Z,8.47
2018-08-30T20:19:08.504Z,7.30
2018-08-30T20:21:38.362Z,6.25
2018-08-30T20:24:08.962Z,5.30
2018-08-30T20:26:38.872Z,4.83
2018-08-30T20:29:08.945Z,5.10
2018-08-30T20:31:40.843Z,4.92
2018-08-30T20:34:11.705Z,4.67
2018-08-30T20:36:41.741Z,4.90
2018-08-30T20:39:11.740Z,4.50
2018-08-30T20:41:43.299Z,4.50
2018-08-30T20:44:14.189Z,4.70
2018-08-30T20:46:45.519Z,4.85
2018-08-30T20:49:15.675Z,4.65
2018-08-30T20:51:46.951Z,4.35
2018-08-30T20:54:17.746Z,5.08
2018-08-30T20:56:49.142Z,4.87
2018-08-30T20:59:23.032Z,5.10
2018-08-30T21:01:53.127Z,4.80
2018-08-30T21:04:23.606Z,4.30
2018-08-30T21:06:53.656Z,5.10
2018-08-30T21:09:23.731Z,4.70
2018-08-30T21:11:54.960Z,4.80
2018-08-30T21:14:25.996Z,4.90
2018-08-30T21:16:57.101Z,5.08
2018-08-30T21:19:28.179Z,5.37
2018-08-30T21:21:59.328Z,5.10
2018-08-30T21:24:30.044Z,6.28
2018-08-30T21:27:01.061Z,6.45
2018-08-30T21:29:31.722Z,6.17
2018-08-30T21:32:03.420Z,6.35
2018-08-30T21:34:34.059Z,6.56
2018-08-30T21:37:05.118Z,6.65
2018-08-30T21:39:35.726Z,7.00
2018-08-30T21:42:06.846Z,6.42
2018-08-30T21:44:37.673Z,7.37
2018-08-30T21:47:09.137Z,6.45
2018-08-30T21:49:39.878Z,6.42
2018-08-30T21:52:11.104Z,7.12
2018-08-30T21:54:41.805Z,6.58
2018-08-30T21:57:13.117Z,6.17
2018-08-30T21:59:43.812Z,7.05
2018-08-30T22:02:15.865Z,6.05
2018-08-30T22:04:45.691Z,7.20
2018-08-30T22:07:16.781Z,7.35
2018-08-30T22:09:47.958Z,7.03
2018-08-30T22:12:19.017Z,7.53
2018-08-30T22:14:49.721Z,7.00
2018-08-30T22:17:20.715Z,7.17
2018-08-30T22:19:51.519Z,7.70
2018-08-30T22:22:22.999Z,7.28
2018-08-30T22:24:53.711Z,7.72
2018-08-30T22:27:24.710Z,7.70
2018-08-30T22:29:55.573Z,7.17
2018-08-30T22:32:26.990Z,7.66
2018-08-30T22:34:57.763Z,8.00
2018-08-30T22:37:28.795Z,7.50
2018-08-30T22:39:59.890Z,8.03
2018-08-30T22:42:30.958Z,7.85
2018-08-30T22:45:02.213Z,8.80
2018-08-30T22:47:33.243Z,8.20
2018-08-30T22:50:04.069Z,8.60
2018-08-30T22:52:35.132Z,8.75
2018-08-30T22:55:05.812Z,8.58
2018-08-30T22:57:36.985Z,8.15
2018-08-30T23:00:07.768Z,8.63
2018-08-30T23:02:38.737Z,9.43
2018-08-30T23:05:09.546Z,9.83
2018-08-30T23:07:40.840Z,8.86
2018-08-30T23:10:11.721Z,9.20
2018-08-30T23:12:42.558Z,10.15
2018-08-30T23:15:13.887Z,9.64
2018-08-30T23:17:44.688Z,9.93
2018-08-30T23:20:15.565Z,9.38
2018-08-30T23:22:46.550Z,9.30
2018-08-30T23:25:16.496Z,9.05
2018-08-30T23:27:47.828Z,9.50
2018-08-30T23:30:18.879Z,9.68
2018-08-30T23:32:50.788Z,9.73
2018-08-30T23:35:20.761Z,9.30
2018-08-30T23:37:56.129Z,9.25
2018-08-30T23:40:26.709Z,9.70
2018-08-30T23:42:56.591Z,9.60
2018-08-30T23:45:27.454Z,9.27
2018-08-30T23:47:57.360Z,9.63
2018-08-30T23:50:27.241Z,9.30
2018-08-30T23:52:57.923Z,9.65
2018-08-30T23:55:28.817Z,9.60
2018-08-30T23:58:10.334Z,9.58
